Time;durP1;ratioP1;P1;durP2;ratioP2;P2;SDS_P1;SDS_P2;PMS_P1;PMS_P2;Temp;Humidity;BMP_temperature;BMP_pressure;BME280_temperature;BME280_humidity;BME280_pressure;Samples;Min_cycle;Max_cycle;Signal;HPM_P1;HPM_P2
2023/11/07 00:01:26;;;;;;;1.80;0.30;;;;;;;11.14;89.50;100139.06;5054526;28;20451;-68
2023/11/07 00:03:53;;;;;;;1.90;0.40;;;;;;;11.06;90.17;100145.25;5052913;28;21020;-68
2023/11/07 00:06:19;;;;;;;1.80;0.40;;;;;;;11.03;90.00;100154.03;5053773;28;20441;-68
2023/11/07 00:08:46;;;;;;;1.97;0.50;;;;;;;10.99;90.64;100153.88;5053374;28;20465;-68
2023/11/07 00:11:13;;;;;;;2.10;0.63;;;;;;;10.91;91.14;100161.97;5053632;28;20446;-68
2023/11/07 00:13:40;;;;;;;1.80;0.47;;;;;;;10.86;90.88;100161.00;5053600;28;20496;-67
2023/11/07 00:16:11;;;;;;;2.93;0.57;;;;;;;10.83;90.89;100167.03;5054308;28;20445;-67
2023/11/07 00:18:37;;;;;;;3.60;0.73;;;;;;;10.81;91.48;100168.47;5053484;28;20422;-67
2023/11/07 00:21:05;;;;;;;1.90;0.40;;;;;;;10.77;91.40;100167.50;5053950;28;20453;-67
2023/11/07 00:23:31;;;;;;;2.00;0.53;;;;;;;10.74;91.58;100173.53;5053213;28;20958;-67
2023/11/07 00:25:58;;;;;;;1.90;0.50;;;;;;;10.71;92.14;100177.63;5053569;28;20517;-67
2023/11/07 00:28:25;;;;;;;2.07;0.50;;;;;;;10.64;92.61;100180.00;5053516;28;20503;-67
2023/11/07 00:30:52;;;;;;;2.10;0.50;;;;;;;10.56;93.49;100181.56;5053482;28;20434;-68
2023/11/07 00:33:20;;;;;;;2.00;0.40;;;;;;;10.53;93.67;100184.09;5053583;28;20552;-68
2023/11/07 00:35:46;;;;;;;1.90;0.50;;;;;;;10.50;93.59;100192.84;5053135;28;20446;-68
2023/11/07 00:38:13;;;;;;;1.90;0.50;;;;;;;10.41;94.64;100194.72;5053690;28;21022;-68
2023/11/07 00:40:40;;;;;;;2.10;0.53;;;;;;;10.38;94.56;100198.03;5053368;28;20525;-68
2023/11/07 00:43:06;;;;;;;1.90;0.50;;;;;;;10.32;94.48;100200.06;5053311;28;20438;-68
2023/11/07 00:45:33;;;;;;;1.90;0.40;;;;;;;10.24;94.74;100204.31;5053455;22;20494;-68
2023/11/07 00:47:59;;;;;;;2.00;0.50;;;;;;;10.21;95.68;100204.09;5033390;28;20526;-68
2023/11/07 00:50:27;;;;;;;1.80;0.40;;;;;;;10.15;96.01;100206.13;5033625;28;20988;-68
2023/11/07 00:52:54;;;;;;;2.00;0.50;;;;;;;10.10;96.66;100214.38;5033143;28;20483;-69
2023/11/07 00:55:21;;;;;;;1.90;0.50;;;;;;;10.08;96.94;100216.56;5033350;28;20554;-68
2023/11/07 00:57:47;;;;;;;2.00;0.43;;;;;;;9.97;97.29;100205.19;5033355;28;20443;-68
2023/11/07 01:00:16;;;;;;;2.00;0.50;;;;;;;9.94;97.23;100211.19;5033179;28;20534;-68
2023/11/07 01:02:42;;;;;;;1.90;0.50;;;;;;;9.89;97.08;100208.63;5033335;28;20895;-68
2023/11/07 01:05:10;;;;;;;2.20;0.50;;;;;;;9.81;96.61;100218.25;5032873;28;20492;-68
2023/11/07 01:07:38;;;;;;;1.90;0.50;;;;;;;9.74;96.65;100222.47;5033597;28;20451;-67
2023/11/07 01:10:06;;;;;;;2.47;0.63;;;;;;;9.70;97.46;100222.31;5033291;28;20447;-66
2023/11/07 01:12:33;;;;;;;1.87;0.40;;;;;;;9.64;97.75;100222.69;5033101;28;20494;-67
2023/11/07 01:14:59;;;;;;;2.20;0.50;;;;;;;9.57;97.94;100223.13;5034906;28;20966;-68
2023/11/07 01:17:26;;;;;;;2.20;0.60;;;;;;;9.50;98.07;100217.31;5036964;28;20905;-68
2023/11/07 01:19:53;;;;;;;2.37;0.60;;;;;;;9.43;98.27;100222.31;5037010;28;20435;-68
2023/11/07 01:22:20;;;;;;;2.40;0.70;;;;;;;9.31;98.68;100242.56;5037254;28;20843;-68
2023/11/07 01:24:48;;;;;;;2.00;0.60;;;;;;;9.30;98.78;100240.19;5036964;28;20838;-67
2023/11/07 01:27:14;;;;;;;1.80;0.33;;;;;;;9.28;99.81;100237.75;5036982;28;20527;-68
2023/11/07 01:29:41;;;;;;;1.90;0.50;;;;;;;9.33;100.00;100234.94;5037222;28;20470;-68
2023/11/07 01:32:08;;;;;;;2.77;0.57;;;;;;;9.28;100.00;100240.47;5037026;28;20483;-68
2023/11/07 01:34:34;;;;;;;1.90;0.50;;;;;;;9.33;100.00;100242.25;5036324;28;20467;-68
2023/11/07 01:37:01;;;;;;;2.00;0.50;;;;;;;9.30;100.00;100240.97;5036829;28;20534;-68
2023/11/07 01:39:28;;;;;;;2.20;0.70;;;;;;;9.30;100.00;100240.19;5037144;28;20474;-68
2023/11/07 01:41:56;;;;;;;2.30;0.50;;;;;;;9.32;100.00;100232.56;5037073;28;20518;-68
2023/11/07 01:44:29;;;;;;;2.20;0.60;;;;;;;9.32;100.00;100249.56;5036525;28;20553;-68
2023/11/07 01:46:56;;;;;;;2.13;0.50;;;;;;;9.31;100.00;100242.56;5036404;28;20801;-68
2023/11/07 01:49:23;;;;;;;1.90;0.50;;;;;;;9.29;100.00;100241.25;5036673;28;20471;-68
2023/11/07 01:51:50;;;;;;;2.10;0.50;;;;;;;9.30;100.00;100243.69;5036834;28;20450;-68
2023/11/07 01:54:17;;;;;;;2.00;0.50;;;;;;;9.33;100.00;100245.75;5036016;28;20535;-68
2023/11/07 01:56:44;;;;;;;1.90;0.40;;;;;;;9.35;100.00;100248.19;5036305;28;20464;-69
2023/11/07 01:59:12;;;;;;;2.30;0.53;;;;;;;9.31;100.00;100252.59;5036735;28;20529;-68
2023/11/07 02:01:44;;;;;;;1.90;0.40;;;;;;;9.30;100.00;100240.97;5036304;28;20450;-69
2023/11/07 02:04:11;;;;;;;2.00;0.60;;;;;;;9.31;100.00;100247.19;5036241;28;20553;-68
2023/11/07 02:06:38;;;;;;;1.80;0.40;;;;;;;9.24;100.00;100247.56;5036125;28;20527;-68
2023/11/07 02:09:08;;;;;;;2.00;0.50;;;;;;;9.20;100.00;100245.75;5036890;28;20492;-68
2023/11/07 02:11:35;;;;;;;1.90;0.50;;;;;;;9.20;100.00;100240.34;5035951;28;20486;-68
2023/11/07 02:14:01;;;;;;;2.00;0.50;;;;;;;9.20;100.00;100254.66;5035724;28;20493;-68
2023/11/07 02:16:30;;;;;;;2.60;0.53;;;;;;;9.18;100.00;100251.47;5036059;28;20439;-68
2023/11/07 02:18:56;;;;;;;1.90;0.40;;;;;;;9.14;100.00;100246.97;5035719;28;20955;-68
2023/11/07 02:21:24;;;;;;;1.80;0.40;;;;;;;9.09;100.00;100250.56;5035631;28;20439;-68
2023/11/07 02:23:52;;;;;;;1.90;0.50;;;;;;;9.05;100.00;100252.25;5035867;28;20517;-67
2023/11/07 02:26:19;;;;;;;1.87;0.40;;;;;;;9.10;100.00;100242.16;5034728;28;20514;-67
2023/11/07 02:28:46;;;;;;;1.90;0.50;;;;;;;9.18;100.00;100254.19;5035917;28;20527;-67
2023/11/07 02:31:12;;;;;;;2.30;0.47;;;;;;;9.15;100.00;100257.47;5036016;28;20844;-67
2023/11/07 02:33:41;;;;;;;1.90;0.60;;;;;;;9.17;100.00;100258.00;5035818;28;20486;-67
2023/11/07 02:36:09;;;;;;;1.87;0.43;;;;;;;9.16;100.00;100255.56;5036015;28;20541;-67
2023/11/07 02:38:35;;;;;;;1.90;0.40;;;;;;;9.22;100.00;100263.28;5035288;28;20878;-67
2023/11/07 02:41:04;;;;;;;2.00;0.47;;;;;;;9.19;100.00;100263.88;5035614;28;20473;-67
2023/11/07 02:43:31;;;;;;;2.10;0.70;;;;;;;9.16;100.00;100264.47;5035075;28;20451;-67
2023/11/07 02:45:58;;;;;;;2.00;0.50;;;;;;;9.15;100.00;100272.88;5034979;28;20486;-67
2023/11/07 02:48:25;;;;;;;3.07;0.67;;;;;;;9.16;100.00;100272.56;5035743;28;20439;-67
2023/11/07 02:50:51;;;;;;;1.87;0.40;;;;;;;9.17;100.00;100274.19;5035705;28;20443;-67
2023/11/07 02:53:18;;;;;;;2.13;0.50;;;;;;;9.21;100.00;100272.50;5034822;28;20510;-67
2023/11/07 02:55:45;;;;;;;1.97;0.57;;;;;;;9.20;100.00;100268.19;5035247;28;20526;-67
2023/11/07 02:58:13;;;;;;;2.10;0.40;;;;;;;9.18;100.00;100272.28;5034919;28;20447;-67
2023/11/07 03:00:40;;;;;;;2.27;0.53;;;;;;;9.22;100.00;100273.31;5035260;28;20451;-67
2023/11/07 03:03:08;;;;;;;1.90;0.40;;;;;;;9.16;100.00;100275.28;5034760;28;20439;-67
2023/11/07 03:05:35;;;;;;;1.90;0.50;;;;;;;9.16;100.00;100283.38;5035155;28;21001;-67
2023/11/07 03:08:02;;;;;;;1.80;0.40;;;;;;;9.15;100.00;100284.50;5035483;28;20443;-67
2023/11/07 03:10:28;;;;;;;1.90;0.40;;;;;;;9.14;100.00;100274.78;5034861;28;20453;-67
2023/11/07 03:12:55;;;;;;;2.00;0.50;;;;;;;9.17;100.00;100278.81;5034894;28;20494;-68
2023/11/07 03:15:23;;;;;;;2.00;0.60;;;;;;;9.18;100.00;100281.19;5034890;28;20873;-67
2023/11/07 03:17:50;;;;;;;2.00;0.50;;;;;;;9.18;100.00;100280.41;5035218;28;20443;-67
2023/11/07 03:20:17;;;;;;;2.77;0.70;;;;;;;9.15;100.00;100287.19;5034707;28;20541;-67
2023/11/07 03:22:44;;;;;;;2.20;0.60;;;;;;;9.12;100.00;100281.56;5034827;28;20440;-67
2023/11/07 03:25:10;;;;;;;2.20;0.60;;;;;;;9.12;100.00;100281.56;5034379;28;20989;-67
2023/11/07 03:27:38;;;;;;;3.60;0.63;;;;;;;9.08;100.00;100282.19;5035275;28;20447;-67
2023/11/07 03:30:06;;;;;;;1.90;0.40;;;;;;;9.06;100.00;100288.97;5034607;28;20447;-67
2023/11/07 03:32:34;;;;;;;2.00;0.40;;;;;;;9.05;100.00;100295.50;5034471;28;20530;-68
2023/11/07 03:35:01;;;;;;;1.80;0.40;;;;;;;9.02;100.00;100293.38;5034916;28;20573;-67
2023/11/07 03:37:28;;;;;;;4.00;0.63;;;;;;;9.04;100.00;100294.69;5033978;28;20443;-67
2023/11/07 03:39:54;;;;;;;2.80;0.90;;;;;;;9.06;100.00;100294.38;5034375;28;20439;-67
2023/11/07 03:42:21;;;;;;;1.80;0.40;;;;;;;9.03;100.00;100300.38;5034428;28;20439;-67
2023/11/07 03:44:47;;;;;;;2.30;0.80;;;;;;;9.08;100.00;100303.00;5034058;28;20474;-67
2023/11/07 03:47:14;;;;;;;2.40;0.83;;;;;;;9.11;100.00;100305.09;5034339;28;20530;-67
2023/11/07 03:49:42;;;;;;;1.80;0.40;;;;;;;9.13;100.00;100299.41;5034265;28;20564;-67
2023/11/07 03:52:09;;;;;;;1.90;0.40;;;;;;;9.11;100.00;100302.41;5034548;28;20447;-67
2023/11/07 03:54:36;;;;;;;2.37;0.50;;;;;;;9.10;100.00;100301.59;5034233;28;20482;-67
2023/11/07 03:57:03;;;;;;;1.90;0.40;;;;;;;9.12;100.00;100300.50;5034498;28;20450;-67
2023/11/07 03:59:29;;;;;;;1.90;0.50;;;;;;;9.09;100.00;100299.19;5034222;28;20497;-67
2023/11/07 04:01:58;;;;;;;1.90;0.50;;;;;;;9.09;100.00;100304.59;5034043;28;20497;-67
2023/11/07 04:04:25;;;;;;;2.33;0.50;;;;;;;9.16;100.00;100309.59;5034169;28;21025;-67
2023/11/07 04:06:53;;;;;;;3.80;0.70;;;;;;;9.16;100.00;100313.09;5034034;28;20441;-67
2023/11/07 04:09:20;;;;;;;2.10;0.73;;;;;;;9.21;100.00;100307.63;5033900;28;20444;-67
2023/11/07 04:11:46;;;;;;;2.57;0.60;;;;;;;9.21;100.00;100304.09;5033866;28;20812;-67
2023/11/07 04:14:15;;;;;;;2.30;0.60;;;;;;;9.16;100.00;100312.31;5033768;28;20489;-67
2023/11/07 04:16:42;;;;;;;1.80;0.40;;;;;;;9.15;100.00;100306.09;5033856;28;20443;-66
2023/11/07 04:19:08;;;;;;;1.80;0.40;;;;;;;9.18;100.00;100312.81;5034162;28;20549;-68
2023/11/07 04:21:35;;;;;;;1.90;0.47;;;;;;;9.21;100.00;100299.53;5034103;28;20443;-69
2023/11/07 04:24:05;;;;;;;1.90;0.40;;;;;;;9.24;100.00;100306.22;5033894;28;20521;-69
2023/11/07 04:26:31;;;;;;;1.90;0.40;;;;;;;9.26;100.00;100304.03;5034276;28;20447;-69
2023/11/07 04:28:58;;;;;;;1.90;0.50;;;;;;;9.26;100.00;100312.94;5033830;28;20474;-69
2023/11/07 04:31:25;;;;;;;1.90;0.40;;;;;;;9.22;100.00;100311.94;5033760;28;20542;-69
2023/11/07 04:33:52;;;;;;;2.20;0.50;;;;;;;9.25;100.00;100324.84;5033479;28;20490;-69
2023/11/07 04:36:18;;;;;;;2.00;0.47;;;;;;;9.25;100.00;100314.03;5033931;28;20526;-69
2023/11/07 04:38:45;;;;;;;2.60;0.67;;;;;;;9.28;100.00;100326.16;5033535;28;20479;-69
2023/11/07 04:41:13;;;;;;;2.40;0.63;;;;;;;9.27;100.00;100311.84;5033557;28;20483;-69
2023/11/07 04:43:40;;;;;;;1.80;0.40;;;;;;;9.30;100.00;100327.47;5033264;28;20460;-69
2023/11/07 04:46:07;;;;;;;1.90;0.40;;;;;;;9.29;100.00;100327.75;5033099;28;20451;-69
2023/11/07 04:48:34;;;;;;;1.80;0.40;;;;;;;9.28;100.00;100326.94;5033566;28;20450;-68
2023/11/07 04:51:02;;;;;;;1.93;0.40;;;;;;;9.27;100.00;100328.03;5037319;28;20438;-69
2023/11/07 04:53:29;;;;;;;1.90;0.40;;;;;;;9.29;100.00;100330.44;5037503;28;20577;-69
2023/11/07 04:55:55;;;;;;;1.90;0.40;;;;;;;9.30;100.00;100330.16;5037484;28;20825;-69
2023/11/07 04:58:25;;;;;;;1.80;0.40;;;;;;;9.31;100.00;100331.75;5037613;28;21011;-69
2023/11/07 05:00:52;;;;;;;2.17;0.57;;;;;;;9.27;100.00;100333.44;5037718;28;20952;-69
2023/11/07 05:03:19;;;;;;;2.00;0.50;;;;;;;9.25;100.00;100334.84;5037360;28;21040;-69
2023/11/07 05:05:47;;;;;;;2.10;0.40;;;;;;;9.23;100.00;100334.34;5037361;28;20529;-69
2023/11/07 05:08:14;;;;;;;1.87;0.40;;;;;;;9.23;100.00;100339.75;5038589;28;20542;-69
2023/11/07 05:10:40;;;;;;;2.43;0.93;;;;;;;9.21;100.00;100331.94;5038004;28;20534;-69
2023/11/07 05:13:07;;;;;;;2.07;0.50;;;;;;;9.20;100.00;100335.72;5036800;28;20538;-68
2023/11/07 05:15:35;;;;;;;1.90;0.40;;;;;;;9.20;100.00;100327.63;5037228;28;20877;-68
2023/11/07 05:18:02;;;;;;;2.00;0.50;;;;;;;9.25;100.00;100334.84;5037457;28;20445;-68
2023/11/07 05:20:28;;;;;;;2.43;0.50;;;;;;;9.26;100.00;100331.84;5036754;28;20446;-68
2023/11/07 05:22:55;;;;;;;6.63;0.63;;;;;;;9.21;100.00;100337.34;5037332;28;20935;-68
2023/11/07 05:25:23;;;;;;;1.90;0.40;;;;;;;9.17;100.00;100347.16;5036920;28;20489;-68
2023/11/07 05:27:49;;;;;;;2.77;0.60;;;;;;;9.16;100.00;100336.63;5037198;28;20471;-68
2023/11/07 05:30:16;;;;;;;2.13;0.63;;;;;;;9.15;100.00;100340.44;5036983;28;20473;-68
2023/11/07 05:32:47;;;;;;;2.00;0.60;;;;;;;9.15;100.00;100335.03;5037657;28;20474;-68
2023/11/07 05:35:14;;;;;;;2.20;0.50;;;;;;;9.18;100.00;100348.75;5036737;28;20910;-68
2023/11/07 05:37:41;;;;;;;3.53;0.63;;;;;;;9.19;100.00;100342.25;5037272;28;20525;-68
2023/11/07 05:40:13;;;;;;;1.90;0.40;;;;;;;9.21;100.00;100345.47;5036613;28;20442;-68
2023/11/07 05:42:40;;;;;;;3.13;0.80;;;;;;;9.22;100.00;100349.75;5036775;28;20423;-68
2023/11/07 05:45:07;;;;;;;1.80;0.40;;;;;;;9.23;100.00;100355.97;5036685;28;20467;-68
2023/11/07 05:47:36;;;;;;;1.87;0.40;;;;;;;9.26;100.00;100367.00;5036565;28;20469;-68
2023/11/07 05:50:05;;;;;;;1.90;0.50;;;;;;;9.25;100.00;100365.41;5036582;28;20474;-68
2023/11/07 05:52:32;;;;;;;1.90;0.47;;;;;;;9.25;100.00;100373.50;5036369;28;20533;-68
2023/11/07 05:55:00;;;;;;;1.83;0.30;;;;;;;9.27;100.00;100376.69;5036323;28;20487;-68
2023/11/07 05:57:27;;;;;;;2.23;0.40;;;;;;;9.29;100.00;100377.19;5036683;28;20486;-68
2023/11/07 05:59:53;;;;;;;1.93;0.43;;;;;;;9.31;100.00;100379.59;5036302;28;20538;-68
2023/11/07 06:02:20;;;;;;;1.90;0.43;;;;;;;9.30;100.00;100383.41;5036400;28;20439;-68
2023/11/07 06:04:47;;;;;;;1.80;0.40;;;;;;;9.30;100.00;100386.91;5035944;28;20542;-68
2023/11/07 06:07:15;;;;;;;2.20;0.50;;;;;;;9.31;100.00;100393.91;5036214;28;20529;-68
2023/11/07 06:09:41;;;;;;;2.00;0.50;;;;;;;9.29;100.00;100388.00;5036338;28;20530;-68
2023/11/07 06:12:09;;;;;;;1.87;0.40;;;;;;;9.30;100.00;100389.63;5036001;28;20652;-68
2023/11/07 06:14:36;;;;;;;2.00;0.40;;;;;;;9.34;100.00;100393.34;5036114;28;20486;-68
2023/11/07 06:17:03;;;;;;;3.07;0.80;;;;;;;9.35;100.00;100396.84;5035942;28;20810;-68
2023/11/07 06:19:30;;;;;;;1.90;0.50;;;;;;;9.35;100.00;100394.94;5036004;28;20443;-68
2023/11/07 06:21:56;;;;;;;2.20;0.50;;;;;;;9.35;100.00;100397.63;5036096;28;20847;-68
2023/11/07 06:24:24;;;;;;;1.90;0.43;;;;;;;9.35;100.00;100405.75;5035945;28;20941;-68
2023/11/07 06:26:51;;;;;;;3.10;0.70;;;;;;;9.34;100.00;100397.91;5035993;28;20435;-68
2023/11/07 06:29:18;;;;;;;1.90;0.40;;;;;;;9.33;100.00;100399.81;5036078;28;20538;-68
2023/11/07 06:31:45;;;;;;;2.00;0.50;;;;;;;9.35;100.00;100404.94;5035895;28;20531;-68
2023/11/07 06:34:12;;;;;;;2.10;0.50;;;;;;;9.33;100.00;100402.53;5036083;28;20824;-67
2023/11/07 06:36:38;;;;;;;1.90;0.40;;;;;;;9.32;100.00;100417.16;5036024;28;20443;-67
2023/11/07 06:39:06;;;;;;;1.90;0.40;;;;;;;9.31;100.00;100407.44;5036848;28;20562;-67
2023/11/07 06:41:34;;;;;;;1.90;0.40;;;;;;;9.32;100.00;100416.34;5035629;28;20447;-67
2023/11/07 06:44:00;;;;;;;1.90;0.40;;;;;;;9.35;100.00;100415.75;5051677;22;20435;-66
2023/11/07 06:46:27;;;;;;;2.10;0.50;;;;;;;9.35;100.00;100416.56;5055870;28;20435;-66
2023/11/07 06:48:53;;;;;;;2.00;0.50;;;;;;;9.29;100.00;100411.53;5055891;28;20492;-65
2023/11/07 06:51:21;;;;;;;2.10;0.50;;;;;;;9.28;100.00;100415.31;5055808;28;20537;-66
2023/11/07 06:53:48;;;;;;;2.20;0.73;;;;;;;9.26;100.00;100418.34;5055523;28;20853;-66
2023/11/07 06:56:15;;;;;;;1.90;0.43;;;;;;;9.25;100.00;100422.16;5055161;28;20809;-65
2023/11/07 06:58:44;;;;;;;2.30;0.50;;;;;;;9.30;100.00;100419.34;5055194;28;20461;-66
2023/11/07 07:01:13;;;;;;;3.10;0.87;;;;;;;9.31;100.00;100426.34;5056139;28;20442;-66
2023/11/07 07:03:40;;;;;;;1.90;0.40;;;;;;;9.34;100.00;100422.25;5055519;28;20494;-69
2023/11/07 07:06:07;;;;;;;1.93;0.47;;;;;;;9.34;100.00;100422.25;5055531;28;20478;-67
2023/11/07 07:08:34;;;;;;;1.90;0.40;;;;;;;9.34;100.00;100420.38;5055692;28;20462;-70
2023/11/07 07:11:01;;;;;;;1.90;0.47;;;;;;;9.35;100.00;100430.06;5055501;28;20477;-68
2023/11/07 07:13:27;;;;;;;2.33;0.40;;;;;;;9.40;100.00;100425.69;5054669;28;20462;-68
2023/11/07 07:15:56;;;;;;;2.07;0.57;;;;;;;9.40;100.00;100423.78;5055193;28;20485;-67
2023/11/07 07:18:22;;;;;;;2.30;0.67;;;;;;;9.42;100.00;100423.47;5054874;28;20958;-68
2023/11/07 07:20:53;;;;;;;1.90;0.40;;;;;;;9.44;100.00;100424.78;5055565;28;20439;-68
2023/11/07 07:23:24;;;;;;;2.53;0.80;;;;;;;9.47;100.00;100426.09;5054851;28;20545;-67
2023/11/07 07:25:51;;;;;;;2.00;0.47;;;;;;;9.51;100.00;100427.88;5055096;28;20521;-66
2023/11/07 07:28:19;;;;;;;1.93;0.53;;;;;;;9.53;100.00;100430.31;5055285;28;20533;-67
2023/11/07 07:30:47;;;;;;;2.60;0.70;;;;;;;9.60;100.00;100436.13;5055175;28;20442;-66
2023/11/07 07:33:19;;;;;;;2.10;0.70;;;;;;;9.66;100.00;100434.94;5054904;28;20909;-66
2023/11/07 07:35:47;;;;;;;2.00;0.60;;;;;;;9.72;100.00;100431.03;5055196;28;20486;-67
2023/11/07 07:38:14;;;;;;;2.00;0.57;;;;;;;9.75;100.00;100437.75;5054815;28;20525;-66
2023/11/07 07:40:41;;;;;;;2.63;0.60;;;;;;;9.76;100.00;100437.44;5054952;28;20434;-67
2023/11/07 07:43:10;;;;;;;2.00;0.50;;;;;;;9.81;100.00;100439.25;5054940;28;20488;-67
2023/11/07 07:45:39;;;;;;;1.90;0.40;;;;;;;9.84;100.00;100444.09;5054510;28;20968;-66
2023/11/07 07:48:07;;;;;;;1.90;0.40;;;;;;;9.91;100.00;100451.78;5055068;28;20450;-66
2023/11/07 07:50:35;;;;;;;1.80;0.40;;;;;;;9.95;100.00;100445.47;5054843;28;20438;-66
2023/11/07 07:53:06;;;;;;;2.10;0.60;;;;;;;9.97;100.00;100447.91;5054448;28;20790;-67
2023/11/07 07:55:33;;;;;;;2.20;0.80;;;;;;;10.08;99.97;100446.59;5054788;28;20470;-66
2023/11/07 07:58:00;;;;;;;2.10;0.50;;;;;;;10.18;98.92;100448.28;5054338;28;20873;-66
2023/11/07 08:00:30;;;;;;;1.90;0.50;;;;;;;10.20;99.36;100446.09;5054465;28;20942;-66
2023/11/07 08:02:57;;;;;;;2.00;0.60;;;;;;;10.25;98.49;100451.44;5054231;28;20482;-67
2023/11/07 08:05:24;;;;;;;1.97;0.50;;;;;;;10.26;99.00;100451.13;5054573;28;20530;-66
2023/11/07 08:07:52;;;;;;;1.90;0.50;;;;;;;10.30;98.39;100443.19;5054721;28;20442;-66
2023/11/07 08:10:22;;;;;;;2.00;0.50;;;;;;;10.39;97.83;100460.34;5054611;28;20533;-66
2023/11/07 08:12:50;;;;;;;2.17;0.50;;;;;;;10.45;97.40;100452.94;5054473;28;20442;-67
2023/11/07 08:15:17;;;;;;;1.90;0.40;;;;;;;10.50;97.46;100453.63;5054278;28;20490;-67
2023/11/07 08:17:44;;;;;;;1.90;0.43;;;;;;;10.53;97.00;100450.28;5054523;28;20545;-66
2023/11/07 08:20:15;;;;;;;2.67;0.87;;;;;;;10.60;96.36;100450.69;5054325;28;20478;-66
2023/11/07 08:22:42;;;;;;;2.00;0.50;;;;;;;10.69;96.01;100453.47;5054560;28;20423;-66
2023/11/07 08:25:11;;;;;;;2.50;0.60;;;;;;;10.71;95.81;100456.66;5053149;28;20470;-66
2023/11/07 08:27:39;;;;;;;3.33;0.63;;;;;;;10.80;94.71;100468.41;5053960;28;20443;-66
2023/11/07 08:30:09;;;;;;;1.97;0.50;;;;;;;10.84;94.24;100461.25;5054280;28;20474;-66
2023/11/07 08:32:36;;;;;;;2.30;0.50;;;;;;;10.89;93.96;100478.50;5054287;28;20512;-67
2023/11/07 08:35:06;;;;;;;2.53;0.57;;;;;;;10.94;94.20;100478.41;5053539;28;20834;-66
2023/11/07 08:37:33;;;;;;;2.63;0.80;;;;;;;11.02;93.95;100483.06;5054282;28;20438;-66
2023/11/07 08:40:03;;;;;;;2.10;0.60;;;;;;;11.10;93.34;100479.63;5053695;28;20442;-66
2023/11/07 08:42:31;;;;;;;2.00;0.60;;;;;;;11.22;92.51;100482.59;5053450;28;20438;-66
2023/11/07 08:44:57;;;;;;;3.40;0.70;;;;;;;11.32;92.03;100479.63;5053236;28;20553;-65
2023/11/07 08:47:24;;;;;;;1.90;0.40;;;;;;;11.40;91.90;100477.31;5053594;28;20434;-66
2023/11/07 08:49:55;;;;;;;2.20;0.53;;;;;;;11.41;91.06;100481.63;5053979;28;20887;-67
2023/11/07 08:52:21;;;;;;;2.17;0.60;;;;;;;11.40;91.22;100482.72;5053859;28;20422;-67
2023/11/07 08:54:48;;;;;;;2.10;0.50;;;;;;;11.43;91.26;100482.91;5053425;28;20490;-67
2023/11/07 08:57:15;;;;;;;2.00;0.50;;;;;;;11.47;91.03;100483.09;5053890;28;20534;-67
2023/11/07 08:59:44;;;;;;;2.43;0.80;;;;;;;11.55;90.79;100482.34;5053566;28;20833;-67
2023/11/07 09:02:11;;;;;;;2.40;0.80;;;;;;;11.61;90.23;100483.81;5053747;28;20451;-67
2023/11/07 09:04:38;;;;;;;2.40;0.70;;;;;;;11.59;89.92;100483.31;5053393;28;20890;-67
2023/11/07 09:07:06;;;;;;;2.60;0.60;;;;;;;11.72;89.18;100482.44;5053947;28;20478;-67
2023/11/07 09:09:34;;;;;;;2.00;0.50;;;;;;;11.79;88.81;100488.22;5053749;28;20446;-67
2023/11/07 09:12:01;;;;;;;3.20;0.63;;;;;;;11.84;87.87;100490.03;5053479;28;20521;-67
2023/11/07 09:14:27;;;;;;;1.90;0.43;;;;;;;11.88;88.46;100493.75;5053015;28;20544;-67
2023/11/07 09:16:55;;;;;;;1.80;0.40;;;;;;;11.90;88.95;100501.56;5053644;28;20529;-67
2023/11/07 09:19:22;;;;;;;2.20;0.60;;;;;;;12.05;87.20;100495.75;5053177;28;20906;-67
2023/11/07 09:21:48;;;;;;;1.87;0.40;;;;;;;12.03;87.56;100500.66;5054070;28;20520;-68
2023/11/07 09:24:16;;;;;;;2.13;0.57;;;;;;;12.04;88.02;100497.66;5053452;28;20966;-69
2023/11/07 09:26:42;;;;;;;2.17;0.70;;;;;;;12.12;87.53;100509.66;5053891;28;20533;-66
2023/11/07 09:29:09;;;;;;;2.13;0.60;;;;;;;12.17;86.10;100504.06;5053400;28;20522;-67
2023/11/07 09:31:35;;;;;;;2.00;0.60;;;;;;;12.22;86.87;100505.84;5053055;28;20442;-67
2023/11/07 09:34:04;;;;;;;2.53;0.50;;;;;;;12.24;86.65;100506.34;5053019;28;21025;-67
2023/11/07 09:36:31;;;;;;;1.90;0.50;;;;;;;12.31;86.54;100504.00;5056116;28;20482;-67
2023/11/07 09:38:59;;;;;;;3.30;1.00;;;;;;;12.44;85.34;100502.25;5056797;28;20980;-67
2023/11/07 09:41:26;;;;;;;1.90;0.50;;;;;;;12.57;84.22;100501.31;5057459;28;20445;-67
2023/11/07 09:43:53;;;;;;;1.90;0.50;;;;;;;12.57;84.02;100501.31;5056645;28;20461;-67
2023/11/07 09:46:22;;;;;;;2.93;0.53;;;;;;;12.58;84.05;100501.03;5056823;28;20432;-66
2023/11/07 09:48:51;;;;;;;2.87;0.80;;;;;;;12.54;84.83;100505.50;5057272;28;20517;-66
2023/11/07 09:51:21;;;;;;;3.27;0.90;;;;;;;12.53;85.14;100495.75;5056974;28;20508;-67
2023/11/07 09:53:51;;;;;;;2.40;0.57;;;;;;;12.58;85.03;100500.22;5056961;28;20472;-67
2023/11/07 09:56:18;;;;;;;1.93;0.50;;;;;;;12.59;84.66;100499.09;5057480;28;20505;-67
2023/11/07 09:58:50;;;;;;;1.83;0.40;;;;;;;12.56;84.93;100494.28;5056620;28;20529;-67
2023/11/07 10:01:17;;;;;;;2.20;0.70;;;;;;;12.54;83.22;100499.25;5056761;28;20489;-67
2023/11/07 10:03:47;;;;;;;2.10;0.60;;;;;;;12.49;83.65;100502.13;5056313;28;20493;-67
2023/11/07 10:06:13;;;;;;;2.13;0.60;;;;;;;12.47;84.96;100502.41;5056843;28;20431;-67
2023/11/07 10:08:42;;;;;;;1.90;0.40;;;;;;;12.57;84.41;100504.03;5056503;28;20453;-67
2023/11/07 10:11:10;;;;;;;2.10;0.60;;;;;;;12.65;84.38;100505.19;5056689;28;20442;-67
2023/11/07 10:13:36;;;;;;;1.90;0.40;;;;;;;12.76;83.46;100501.84;5056536;28;20553;-67
2023/11/07 10:16:08;;;;;;;1.90;0.50;;;;;;;12.79;83.32;100505.84;5056674;28;20574;-68
2023/11/07 10:18:47;;;;;;;2.07;0.60;;;;;;;12.86;82.35;100498.81;5057041;28;20433;-67
2023/11/07 10:21:14;;;;;;;1.83;0.43;;;;;;;12.85;82.96;100496.44;5056136;28;20430;-68
2023/11/07 10:23:42;;;;;;;1.90;0.43;;;;;;;12.87;82.27;100503.13;5055829;28;20540;-67
2023/11/07 10:26:13;;;;;;;2.20;0.70;;;;;;;12.90;82.77;100496.28;5056116;28;20437;-68
2023/11/07 10:28:40;;;;;;;2.77;0.60;;;;;;;12.95;82.61;100501.56;5056640;28;20438;-68
2023/11/07 10:31:17;;;;;;;1.80;0.40;;;;;;;12.99;82.77;100493.56;5056603;28;20465;-68
2023/11/07 10:33:44;;;;;;;1.80;0.40;;;;;;;13.04;81.00;100501.56;5056043;28;20542;-67
2023/11/07 10:36:11;;;;;;;2.00;0.60;;;;;;;13.07;80.98;100504.44;5055719;28;20486;-67
2023/11/07 10:38:39;;;;;;;2.10;0.60;;;;;;;13.17;81.40;100505.25;5056214;28;20541;-67
2023/11/07 10:41:08;;;;;;;2.47;0.47;;;;;;;13.21;81.48;100506.19;5055853;28;20492;-68
2023/11/07 10:43:36;;;;;;;1.90;0.50;;;;;;;13.24;80.56;100497.44;5055393;28;20466;-67
2023/11/07 10:46:04;;;;;;;1.90;0.50;;;;;;;13.21;79.85;100512.44;5055557;28;20474;-67
2023/11/07 10:48:32;;;;;;;2.10;0.50;;;;;;;13.14;80.05;100509.38;5055097;28;20481;-67
2023/11/07 10:51:03;;;;;;;2.27;0.57;;;;;;;13.12;81.08;100504.28;5055892;28;20449;-67
2023/11/07 10:53:31;;;;;;;2.20;0.60;;;;;;;13.21;81.04;100504.28;5055557;28;20458;-67
2023/11/07 10:55:59;;;;;;;2.00;0.50;;;;;;;13.27;81.38;100499.50;5055962;28;20490;-67
2023/11/07 10:58:30;;;;;;;1.90;0.60;;;;;;;13.45;80.60;100501.06;5055456;28;20790;-67
2023/11/07 11:00:58;;;;;;;2.00;0.40;;;;;;;13.73;80.17;100495.28;5055756;28;20423;-67
2023/11/07 11:03:26;;;;;;;2.00;0.57;;;;;;;14.01;75.75;100484.78;5055462;28;20821;-67
2023/11/07 11:05:54;;;;;;;8.13;0.70;;;;;;;14.11;75.06;100481.69;5055369;28;20513;-67
2023/11/07 11:08:25;;;;;;;2.20;0.67;;;;;;;14.22;73.85;100484.84;5055347;28;20537;-67
2023/11/07 11:10:57;;;;;;;2.40;0.73;;;;;;;14.21;73.23;100496.84;5055085;28;20964;-67
2023/11/07 11:13:25;;;;;;;2.40;0.73;;;;;;;14.41;73.85;100487.16;5055017;28;20969;-67
2023/11/07 11:15:54;;;;;;;1.80;0.47;;;;;;;14.76;72.88;100490.50;5054942;28;21048;-67
2023/11/07 11:18:25;;;;;;;2.27;0.60;;;;;;;15.30;70.40;100491.34;5055044;28;20928;-67
2023/11/07 11:20:59;;;;;;;2.37;0.60;;;;;;;15.71;67.19;100489.69;5054790;28;20913;-67
2023/11/07 11:23:39;;;;;;;2.53;0.67;;;;;;;15.94;66.35;100484.63;5055155;28;20466;-67
2023/11/07 11:26:26;;;;;;;2.03;0.60;;;;;;;16.72;64.38;100482.78;5055009;28;20456;-67
2023/11/07 11:28:53;;;;;;;3.90;0.60;;;;;;;16.86;60.50;100489.47;5055116;28;20462;-67